sensor_id;sensor_type;location;lat;lon;timestamp;pressure;altitude;pressure_sealevel;temperature;humidity
61740;BME280;47645;45.288;12.038;2023-07-02T00:01:38;1007.9320351531949;;;22.9912109375;91.679799216667
61740;BME280;47645;45.288;12.038;2023-07-02T00:11:42;1008.027323974524;;;22.552734375;91.9767611084539
61740;BME280;47645;45.288;12.038;2023-07-02T00:21:41;1007.901899854438;;;22.629296875;88.40321593565008
61740;BME280;47645;45.288;12.038;2023-07-02T00:31:42;1007.9365276775038;;;22.0685546875;100
61740;BME280;47645;45.288;12.038;2023-07-02T00:41:46;1007.9827975055746;;;22.0685546875;100
61740;BME280;47645;45.288;12.038;2023-07-02T00:51:45;1007.9362824463362;;;22.4203125;100
61740;BME280;47645;45.288;12.038;2023-07-02T01:01:50;1007.9278594656136;;;21.8392578125;100
61740;BME280;47645;45.288;12.038;2023-07-02T01:11:50;1007.9500416580516;;;21.6302734375;100
61740;BME280;47645;45.288;12.038;2023-07-02T01:21:49;1007.9418308824391;;;21.6505859375;94.50051947856166
61740;BME280;47645;45.288;12.038;2023-07-02T01:31:50;1007.890126236052;;;21.3140625;100
61740;BME280;47645;45.288;12.038;2023-07-02T01:41:53;1007.7333765903466;;;21.915625;100
61740;BME280;47645;45.288;12.038;2023-07-02T01:51:54;1007.7694143934052;;;21.8646484375;100
61740;BME280;47645;45.288;12.038;2023-07-02T02:01:54;1007.8416731296769;;;21.8443359375;100
61740;BME280;47645;45.288;12.038;2023-07-02T02:11:55;1007.9263867991461;;;21.599609375;100
61740;BME280;47645;45.288;12.038;2023-07-02T02:21:57;1007.8833972696623;;;21.29375;100
61740;BME280;47645;45.288;12.038;2023-07-02T02:31:58;1007.9376946603691;;;21.405859375;94.44875168611817
61740;BME280;47645;45.288;12.038;2023-07-02T02:41:59;1008.0033816626402;;;21.6404296875;90.29868349258075
61740;BME280;47645;45.288;12.038;2023-07-02T02:52:01;1007.9930455565161;;;21.0134765625;100
61740;BME280;47645;45.288;12.038;2023-07-02T03:02:02;1008.0237583424284;;;20.773828125;100
61740;BME280;47645;45.288;12.038;2023-07-02T03:12:04;1008.0730530444051;;;20.865625;100
61740;BME280;47645;45.288;12.038;2023-07-02T03:22:05;1008.0162368016413;;;20.8349609375;100
61740;BME280;47645;45.288;12.038;2023-07-02T03:32:07;1008.0060765767012;;;21.2529296875;100
61740;BME280;47645;45.288;12.038;2023-07-02T03:42:07;1008.1510775737194;;;21.2326171875;94.20187816974901
61740;BME280;47645;45.288;12.038;2023-07-02T03:52:09;1008.1970073240307;;;21.395703125;89.99398361610447
61740;BME280;47645;45.288;12.038;2023-07-02T04:02:10;1008.2132425123829;;;21.7423828125;100
61740;BME280;47645;45.288;12.038;2023-07-02T04:12:11;1008.3750938900951;;;21.9359375;87.32373691850272
61740;BME280;47645;45.288;12.038;2023-07-02T04:22:13;1008.4750410042503;;;22.13984375;83.91398042447103
61740;BME280;47645;45.288;12.038;2023-07-02T04:32:14;1008.4331725168612;;;22.231640625;86.68913019261169
61740;BME280;47645;45.288;12.038;2023-07-02T04:42:15;1008.5312079536193;;;22.5783203125;100
61740;BME280;47645;45.288;12.038;2023-07-02T04:52:17;1008.5540993833;;;22.756640625;100
61740;BME280;47645;45.288;12.038;2023-07-02T05:02:18;1008.6394202891736;;;22.7720703125;100
61740;BME280;47645;45.288;12.038;2023-07-02T05:12:19;1008.6590137260232;;;22.7720703125;100
61740;BME280;47645;45.288;12.038;2023-07-02T05:22:20;1008.7154970176096;;;23.25625;100
61740;BME280;47645;45.288;12.038;2023-07-02T05:32:22;1008.7571460735293;;;23.8322265625;100
61740;BME280;47645;45.288;12.038;2023-07-02T05:42:23;1008.8544312118306;;;23.9953125;100
61740;BME280;47645;45.288;12.038;2023-07-02T05:52:24;1008.8964689284351;;;24.19921875;100
61740;BME280;47645;45.288;12.038;2023-07-02T06:02:26;1008.9230907428563;;;24.5662109375;100
61740;BME280;47645;45.288;12.038;2023-07-02T06:12:27;1009.0867920927598;;;25.137109375;97.1661045555038
61740;BME280;47645;45.288;12.038;2023-07-02T06:22:28;1009.1609535940529;;;25.3716796875;96.97787601290513
61740;BME280;47645;45.288;12.038;2023-07-02T06:32:30;1009.1745680845188;;;25.2646484375;97.8154713820074
61740;BME280;47645;45.288;12.038;2023-07-02T06:42:31;1009.1202250232726;;;25.427734375;96.8319588649383
61740;BME280;47645;45.288;12.038;2023-07-02T06:52:33;1009.163936924098;;;25.9732421875;94.83976237629727
61740;BME280;47645;45.288;12.038;2023-07-02T07:02:34;1009.1917054789006;;;25.7896484375;94.75496082050607
61740;BME280;47645;45.288;12.038;2023-07-02T07:12:35;1009.2198220951676;;;26.0701171875;93.43787439080612
61740;BME280;47645;45.288;12.038;2023-07-02T07:22:37;1009.2507862097714;;;26.340234375;87.99696565184698
61740;BME280;47645;45.288;12.038;2023-07-02T07:32:38;1009.296894106146;;;26.9009765625;84.89943455584809
61740;BME280;47645;45.288;12.038;2023-07-02T07:42:40;1009.3842469032284;;;26.753125;83.32098531721714
61740;BME280;47645;45.288;12.038;2023-07-02T07:52:42;1009.3098193542835;;;27.4462890625;80.8567251619531
61740;BME280;47645;45.288;12.038;2023-07-02T08:02:42;1009.395447895925;;;28.0224609375;73.37376717671623
61740;BME280;47645;45.288;12.038;2023-07-02T08:12:44;1009.3918438079921;;;28.8482421875;69.00860411110216
61740;BME280;47645;45.288;12.038;2023-07-02T08:22:45;1009.4041475848878;;;29.332421875;68.4232735740661
61740;BME280;47645;45.288;12.038;2023-07-02T08:32:47;1009.5046974749624;;;29.312109375;67.13810273226535
61740;BME280;47645;45.288;12.038;2023-07-02T08:42:48;1009.5511360560045;;;29.7455078125;63.12934798211977
61740;BME280;47645;45.288;12.038;2023-07-02T08:52:50;1009.5425289124701;;;29.1439453125;64.89121273050891
61740;BME280;47645;45.288;12.038;2023-07-02T09:02:51;1009.556732715018;;;29.1794921875;64.74772074968224
61740;BME280;47645;45.288;12.038;2023-07-02T09:13:02;1009.615511793667;;;30.00546875;63.782560072196276
61740;BME280;47645;45.288;12.038;2023-07-02T09:22:54;1009.7004757189547;;;30.7955078125;60.4631176473429
61740;BME280;47645;45.288;12.038;2023-07-02T09:33:06;1009.640601257707;;;30.540625;59.72902677640617
61740;BME280;47645;45.288;12.038;2023-07-02T09:42:58;1009.6526871241298;;;31.0912109375;59.3533812590818
61740;BME280;47645;45.288;12.038;2023-07-02T09:52:59;1009.7055391788844;;;31.0759765625;59.56328418986062
61740;BME280;47645;45.288;12.038;2023-07-02T10:03:01;1009.6701809948387;;;30.8568359375;59.7882726001461
61740;BME280;47645;45.288;12.038;2023-07-02T10:13:02;1009.6132946362194;;;32.340234375;55.63434769616022
61740;BME280;47645;45.288;12.038;2023-07-02T10:23:05;1009.6496328891554;;;33.04375;53.83254319530081
61740;BME280;47645;45.288;12.038;2023-07-02T10:33:08;1009.7267087532651;;;33.349609375;53.02218761178211
61740;BME280;47645;45.288;12.038;2023-07-02T10:43:08;1009.5780108421197;;;33.466796875;52.17082660951019
61740;BME280;47645;45.288;12.038;2023-07-02T10:53:15;1009.5412986097997;;;34.43046875;49.93587031260336
61740;BME280;47645;45.288;12.038;2023-07-02T11:03:19;1009.5925860406703;;;32.9009765625;52.74124100813579
61740;BME280;47645;45.288;12.038;2023-07-02T11:13:14;1009.5464868644532;;;34.7923828125;50.36726691093489
61740;BME280;47645;45.288;12.038;2023-07-02T11:23:19;1009.5362331896216;;;34.8177734375;49.61700641662396
61740;BME280;47645;45.288;12.038;2023-07-02T11:33:17;1009.5037863665497;;;35.86796875;46.935675209506684
61740;BME280;47645;45.288;12.038;2023-07-02T11:43:19;1009.5116622244421;;;36.653125;45.81972092802726
61740;BME280;47645;45.288;12.038;2023-07-02T11:53:21;1009.5247618493744;;;37.035546875;44.59076179823962
61740;BME280;47645;45.288;12.038;2023-07-02T12:03:23;1009.4068486839076;;;36.637890625;44.54177548121365
61740;BME280;47645;45.288;12.038;2023-07-02T12:13:25;1009.4378893601673;;;37.142578125;44.180487361567245
61740;BME280;47645;45.288;12.038;2023-07-02T12:23:27;1009.3204803291364;;;37.7646484375;43.23428178879898
61740;BME280;47645;45.288;12.038;2023-07-02T12:33:29;1009.3215985020903;;;37.453515625;43.16267490824349
61740;BME280;47645;45.288;12.038;2023-07-02T12:43:31;1009.2495538650381;;;37.7798828125;43.240253036364074
61740;BME280;47645;45.288;12.038;2023-07-02T12:53:33;1009.279235248606;;;37.4076171875;43.78214045581058
61740;BME280;47645;45.288;12.038;2023-07-02T13:03:35;1009.2910671609276;;;37.0203125;44.82872193110995
61740;BME280;47645;45.288;12.038;2023-07-02T13:13:37;1009.1758396224448;;;38.3048828125;42.33897578136001
61740;BME280;47645;45.288;12.038;2023-07-02T13:23:40;1009.165383937899;;;37.1833984375;44.59126521924828
61740;BME280;47645;45.288;12.038;2023-07-02T13:33:42;1009.0350639406128;;;38.01953125;42.1783791985429
61740;BME280;47645;45.288;12.038;2023-07-02T13:43:44;1009.1084578502665;;;37.9125;42.30984814915284
61740;BME280;47645;45.288;12.038;2023-07-02T13:53:46;1009.0690143080726;;;37.861328125;41.3912793792969
61740;BME280;47645;45.288;12.038;2023-07-02T14:03:48;1009.1186973449236;;;37.32109375;40.517197174332566
61740;BME280;47645;45.288;12.038;2023-07-02T14:13:51;1009.0466846321536;;;36.83671875;45.13719102332849
61740;BME280;47645;45.288;12.038;2023-07-02T14:23:53;1009.0619168375125;;;34.8177734375;49.427806852681464
61740;BME280;47645;45.288;12.038;2023-07-02T14:33:55;1009.0101141977134;;;34.6240234375;51.37457348124448
61740;BME280;47645;45.288;12.038;2023-07-02T14:43:57;1008.9522118683363;;;34.5783203125;50.221712870123724
61740;BME280;47645;45.288;12.038;2023-07-02T14:53:59;1008.9267374778932;;;35.07265625;48.774828179038714
61740;BME280;47645;45.288;12.038;2023-07-02T15:04:01;1008.8745231391587;;;34.3080078125;51.557303280997765
61740;BME280;47645;45.288;12.038;2023-07-02T15:14:03;1008.8165149732828;;;33.5943359375;50.30538096117465
61740;BME280;47645;45.288;12.038;2023-07-02T15:24:06;1008.6465345663719;;;35.0931640625;49.42010408234239
61740;BME280;47645;45.288;12.038;2023-07-02T15:34:07;1008.6690737651577;;;35.3021484375;48.334080939778495
61740;BME280;47645;45.288;12.038;2023-07-02T15:44:09;1008.6162776375538;;;34.940234375;47.110526841967996
61740;BME280;47645;45.288;12.038;2023-07-02T15:54:11;1008.6071845797014;;;35.4703125;48.37744011569513
61740;BME280;47645;45.288;12.038;2023-07-02T16:04:13;1008.5795016865776;;;35.5111328125;46.27449480530388
61740;BME280;47645;45.288;12.038;2023-07-02T16:14:17;1008.5268640678628;;;35.0064453125;49.123113527164115
61740;BME280;47645;45.288;12.038;2023-07-02T16:24:21;1008.5183645183678;;;35.16953125;47.60405989903728
61740;BME280;47645;45.288;12.038;2023-07-02T16:34:19;1008.5211570513897;;;34.8943359375;47.28152135520891
61740;BME280;47645;45.288;12.038;2023-07-02T16:44:23;1008.5233859375895;;;35.0115234375;49.43063942414392
61740;BME280;47645;45.288;12.038;2023-07-02T16:54:24;1008.5513961996294;;;34.435546875;50.39683313884712
61740;BME280;47645;45.288;12.038;2023-07-02T17:04:26;1008.5068399639307;;;34.231640625;51.05441990099668
61740;BME280;47645;45.288;12.038;2023-07-02T17:14:33;1008.5221748693407;;;33.844140625;51.94314897722292
61740;BME280;47645;45.288;12.038;2023-07-02T17:24:31;1008.6264670462031;;;33.471875;53.1012618196366
61740;BME280;47645;45.288;12.038;2023-07-02T17:34:32;1008.5823381475838;;;32.9826171875;52.054265596573856
61740;BME280;47645;45.288;12.038;2023-07-02T17:44:35;1008.6880861583127;;;32.76328125;54.92446818714816
61740;BME280;47645;45.288;12.038;2023-07-02T17:54:37;1008.7073167647791;;;32.0087890625;57.43070203491035
61740;BME280;47645;45.288;12.038;2023-07-02T18:04:37;1008.848025127648;;;31.5755859375;57.340030092817756
61740;BME280;47645;45.288;12.038;2023-07-02T18:14:41;1008.8371973804716;;;31.121875;58.494653606442675
61740;BME280;47645;45.288;12.038;2023-07-02T18:24:41;1008.9429682304046;;;30.74453125;61.32599394609834
61740;BME280;47645;45.288;12.038;2023-07-02T18:34:42;1008.9850717207113;;;30.2908203125;62.25134690087788
61740;BME280;47645;45.288;12.038;2023-07-02T18:44:44;1008.8881554564538;;;29.796484375;64.27309344915385
61740;BME280;47645;45.288;12.038;2023-07-02T18:54:47;1008.8855691496798;;;29.623046875;65.28221447793428
61740;BME280;47645;45.288;12.038;2023-07-02T19:04:48;1008.83454999407;;;29.3171875;66.4988420255219
61740;BME280;47645;45.288;12.038;2023-07-02T19:14:49;1008.9193792994492;;;28.909375;67.61948811763081
61740;BME280;47645;45.288;12.038;2023-07-02T19:24:51;1009.0586565213013;;;28.4404296875;69.46026146685088
61740;BME280;47645;45.288;12.038;2023-07-02T19:34:56;1009.255336576517;;;28.3181640625;69.30074619260769
61740;BME280;47645;45.288;12.038;2023-07-02T19:44:55;1009.3485875672131;;;28.0427734375;70.66260291962399
61740;BME280;47645;45.288;12.038;2023-07-02T19:55:00;1009.5324825927128;;;27.8490234375;70.90970255310049
61740;BME280;47645;45.288;12.038;2023-07-02T20:05:00;1009.6650430713044;;;27.5076171875;72.22855412066978
61740;BME280;47645;45.288;12.038;2023-07-02T20:15:01;1009.7272523128216;;;27.4107421875;72.56818060352042
61740;BME280;47645;45.288;12.038;2023-07-02T20:25:01;1009.6186363458094;;;27.252734375;74.40541923469236
61740;BME280;47645;45.288;12.038;2023-07-02T20:35:03;1009.7032443905321;;;27.0283203125;72.96940241836592
61740;BME280;47645;45.288;12.038;2023-07-02T20:45:06;1009.7742146410582;;;26.962109375;73.33293694125413
61740;BME280;47645;45.288;12.038;2023-07-02T20:50:06;1009.8396291832793;;;26.8193359375;74.70212731380086
61740;BME280;47645;45.288;12.038;2023-07-02T21:00:12;1009.9059552826009;;;26.65625;73.6858240856945
61740;BME280;47645;45.288;12.038;2023-07-02T21:10:08;1010.0088743682915;;;26.559375;73.73105181135543
61740;BME280;47645;45.288;12.038;2023-07-02T21:20:11;1010.0544095683689;;;26.43203125;75.22044561830057
61740;BME280;47645;45.288;12.038;2023-07-02T21:30:12;1010.0234929927157;;;26.23828125;74.26600662882144
61740;BME280;47645;45.288;12.038;2023-07-02T21:40:13;1010.1094620583627;;;26.1515625;74.74974600310793
61740;BME280;47645;45.288;12.038;2023-07-02T21:50:14;1010.1693215778431;;;25.9681640625;74.75859980609923
61740;BME280;47645;45.288;12.038;2023-07-02T22:00:18;1010.2338222336334;;;25.8048828125;75.01592478882199
61740;BME280;47645;45.288;12.038;2023-07-02T22:10:18;1010.1781760232556;;;25.728515625;74.74058972598375
61740;BME280;47645;45.288;12.038;2023-07-02T22:20:20;1010.2977456000674;;;25.1576171875;78.58949372833435
61740;BME280;47645;45.288;12.038;2023-07-02T22:30:21;1010.2939050704854;;;25.417578125;76.2345968165451
61740;BME280;47645;45.288;12.038;2023-07-02T22:40:23;1010.2720580394156;;;24.91796875;83.99600883663702
61740;BME280;47645;45.288;12.038;2023-07-02T22:50:24;1010.350542549445;;;24.4388671875;97.16345828086382
61740;BME280;47645;45.288;12.038;2023-07-02T23:00:26;1010.2729736046886;;;24.3673828125;93.16580951103012
61740;BME280;47645;45.288;12.038;2023-07-02T23:10:27;1010.2095635087373;;;24.087109375;100
61740;BME280;47645;45.288;12.038;2023-07-02T23:20:29;1010.1700191231824;;;24.4541015625;91.84673431180242
61740;BME280;47645;45.288;12.038;2023-07-02T23:30:35;1010.1001397475525;;;24.4693359375;83.42036340615577
61740;BME280;47645;45.288;12.038;2023-07-02T23:40:33;1010.2175712935255;;;24.4744140625;81.83109889056321
61740;BME280;47645;45.288;12.038;2023-07-02T23:50:34;1010.1608227986587;;;24.3572265625;88.99818787731736
